Zhe Pu Tuo 2012 — BKRA5 — position and weather

sailwx.info

Track history (hours):
 
Tides and Currents Weather Stations Pressure Air Temp Water Temp Dewpoint Dewpoint Depression Visibility Wind Speed Wind Dir Waves Ship Positions

Zhe Pu Tuo 2012

Last reported at 2016-Jul-23 06:16 UTC. Time now 2016-Jul-29 06:00 UTC.
Position N 38°57' E 117°54'.

Length 57 m; draft 3.7 m.

Type: Tug. MMSI: 412763040.

Date/timePositionNaut miles runAvg speedWind from/ knotsBaromVisibWave heightAir tempDewpointWater temp
2016-Jul-23 06:16N 38°57' E 117°54'8 4.9
2016-Jul-23 04:33N 38°59' E 117°44'0 0.0
2016-Jul-23 03:33N 38°59' E 117°44'0 0.0
2016-Jul-23 02:31N 38°59' E 117°44'0 0.3
2016-Jul-23 01:33N 38°59' E 117°43'0 0.0
2016-Jul-23 00:23N 38°59' E 117°43'0 0.0
2016-Jul-22 23:29N 38°59' E 117°43'0 0.0
2016-Jul-22 22:29N 38°59' E 117°43'0 0.0
2016-Jul-22 21:29N 38°59' E 117°43'0 0.0
2016-Jul-22 20:29N 38°59' E 117°43'0 0.0
2016-Jul-22 19:11N 38°59' E 117°43'0 0.0
2016-Jul-22 18:29N 38°59' E 117°43'0 0.0
2016-Jul-22 15:29N 38°59' E 117°43'0 0.0
2016-Jul-22 14:17N 38°59' E 117°43'0 0.0
2016-Jul-22 13:23N 38°59' E 117°43'0 0.0
2016-Jul-22 12:29N 38°59' E 117°43'0 0.0
2016-Jul-22 11:29N 38°59' E 117°43'0 0.0
2016-Jul-22 10:23N 38°59' E 117°43'0 0.0
2016-Jul-22 09:29N 38°59' E 117°43'0 0.0
2016-Jul-22 08:18N 38°59' E 117°43'0 0.3
2016-Jul-22 07:33N 38°59' E 117°44'0 0.0
2016-Jul-22 05:34N 38°59' E 117°44'0 0.2
2016-Jul-22 04:29N 38°59' E 117°43'0 0.0
2016-Jul-22 03:29N 38°59' E 117°43'0 0.0
2016-Jul-22 02:29N 38°59' E 117°43'0 0.0
2016-Jul-22 01:29N 38°59' E 117°43'0 0.0
2016-Jul-22 00:29N 38°59' E 117°43'0 0.0
2016-Jul-21 23:11N 38°59' E 117°43'0 0.0
2016-Jul-21 22:29N 38°59' E 117°43'0 0.0
2016-Jul-21 21:29N 38°59' E 117°43'0 0.0
2016-Jul-21 20:23N 38°59' E 117°43'0 0.0
2016-Jul-21 19:29N 38°59' E 117°43'0 0.0
2016-Jul-21 18:29N 38°59' E 117°43'2 2.4
2016-Jul-21 17:33N 38°58' E 117°46'  
2016-Jul-17 09:08N 39°04' E 119°05'6 8.8
2016-Jul-17 08:30N 39°05' E 119°12'  
2016-Jul-15 04:28N 38°57' E 117°53'7 8.1
2016-Jul-15 03:33N 38°59' E 117°44'0 0.0
2016-Jul-15 02:33N 38°59' E 117°44'0 0.0
2016-Jul-15 01:33N 38°59' E 117°44'0 0.3
2016-Jul-15 00:21N 38°59' E 117°43'0 0.0
2016-Jul-14 23:33N 38°59' E 117°43'0 0.0
2016-Jul-14 22:27N 38°59' E 117°43'0 0.0
2016-Jul-14 21:33N 38°59' E 117°43'0 0.0
2016-Jul-14 20:21N 38°59' E 117°43'0 0.0
2016-Jul-14 19:33N 38°59' E 117°43'0 0.0
2016-Jul-14 18:21N 38°59' E 117°43'0 0.0
2016-Jul-14 16:15N 38°59' E 117°43'0 0.0
2016-Jul-14 15:33N 38°59' E 117°43'0 0.0
2016-Jul-14 14:33N 38°59' E 117°43'0 0.0
2016-Jul-14 13:27N 38°59' E 117°43'0 0.0
2016-Jul-14 12:21N 38°59' E 117°43'0 0.0
2016-Jul-14 11:27N 38°59' E 117°43'0 0.0
2016-Jul-14 10:27N 38°59' E 117°43'0 0.0
2016-Jul-14 09:27N 38°59' E 117°43'0 0.0
2016-Jul-14 08:33N 38°59' E 117°43'0 0.0
2016-Jul-14 07:33N 38°59' E 117°43'0 0.0
2016-Jul-14 06:16N 38°59' E 117°43'0 0.0
2016-Jul-14 04:28N 38°59' E 117°43'0 0.0
2016-Jul-14 02:21N 38°59' E 117°43'0 0.3
2016-Jul-14 01:25N 38°59' E 117°44'0 0.0
2016-Jul-14 00:13N 38°59' E 117°44'0 0.0
2016-Jul-13 22:30N 38°59' E 117°44'0 0.0
2016-Jul-13 21:30N 38°59' E 117°44'0 0.0
2016-Jul-13 20:31N 38°59' E 117°44'0 0.0
2016-Jul-13 19:25N 38°59' E 117°44'0 0.0
2016-Jul-13 18:31N 38°59' E 117°44'0 0.0
2016-Jul-13 17:25N 38°59' E 117°44'0 0.1
2016-Jul-13 16:30N 38°59' E 117°44'0 0.0
2016-Jul-13 15:31N 38°59' E 117°44'2 1.8
2016-Jul-13 14:32N 38°58' E 117°46'8 7.3
2016-Jul-13 13:30N 38°56' E 117°55'10 8.7
2016-Jul-13 12:23N 38°47' E 117°51'  
Track history (hours):
 
Tides and Currents Weather Stations Pressure Air Temp Water Temp Dewpoint Dewpoint Depression Visibility Wind Speed Wind Dir Waves Ship Positions

Zhe Pu Tuo 2012

Last reported at 2016-Jul-23 06:16 UTC. Time now 2016-Jul-29 06:00 UTC.
Position N 38°57' E 117°54'.

Length 57 m; draft 3.7 m.

Type: Tug. MMSI: 412763040.

Date/timePositionNaut miles runAvg speedWind from/ knotsBaromVisibWave heightAir tempDewpointWater temp
2016-Jul-23 06:16N 38°57' E 117°54'8 4.9
2016-Jul-23 04:33N 38°59' E 117°44'0 0.0
2016-Jul-23 03:33N 38°59' E 117°44'0 0.0
2016-Jul-23 02:31N 38°59' E 117°44'0 0.3
2016-Jul-23 01:33N 38°59' E 117°43'0 0.0
2016-Jul-23 00:23N 38°59' E 117°43'0 0.0
2016-Jul-22 23:29N 38°59' E 117°43'0 0.0
2016-Jul-22 22:29N 38°59' E 117°43'0 0.0
2016-Jul-22 21:29N 38°59' E 117°43'0 0.0
2016-Jul-22 20:29N 38°59' E 117°43'0 0.0
2016-Jul-22 19:11N 38°59' E 117°43'0 0.0
2016-Jul-22 18:29N 38°59' E 117°43'0 0.0
2016-Jul-22 15:29N 38°59' E 117°43'0 0.0
2016-Jul-22 14:17N 38°59' E 117°43'0 0.0
2016-Jul-22 13:23N 38°59' E 117°43'0 0.0
2016-Jul-22 12:29N 38°59' E 117°43'0 0.0
2016-Jul-22 11:29N 38°59' E 117°43'0 0.0
2016-Jul-22 10:23N 38°59' E 117°43'0 0.0
2016-Jul-22 09:29N 38°59' E 117°43'0 0.0
2016-Jul-22 08:18N 38°59' E 117°43'0 0.3
2016-Jul-22 07:33N 38°59' E 117°44'0 0.0
2016-Jul-22 05:34N 38°59' E 117°44'0 0.2
2016-Jul-22 04:29N 38°59' E 117°43'0 0.0
2016-Jul-22 03:29N 38°59' E 117°43'0 0.0
2016-Jul-22 02:29N 38°59' E 117°43'0 0.0
2016-Jul-22 01:29N 38°59' E 117°43'0 0.0
2016-Jul-22 00:29N 38°59' E 117°43'0 0.0
2016-Jul-21 23:11N 38°59' E 117°43'0 0.0
2016-Jul-21 22:29N 38°59' E 117°43'0 0.0
2016-Jul-21 21:29N 38°59' E 117°43'0 0.0
2016-Jul-21 20:23N 38°59' E 117°43'0 0.0
2016-Jul-21 19:29N 38°59' E 117°43'0 0.0
2016-Jul-21 18:29N 38°59' E 117°43'2 2.4
2016-Jul-21 17:33N 38°58' E 117°46'  
2016-Jul-17 09:08N 39°04' E 119°05'6 8.8
2016-Jul-17 08:30N 39°05' E 119°12'  
2016-Jul-15 04:28N 38°57' E 117°53'7 8.1
2016-Jul-15 03:33N 38°59' E 117°44'0 0.0
2016-Jul-15 02:33N 38°59' E 117°44'0 0.0
2016-Jul-15 01:33N 38°59' E 117°44'0 0.3
2016-Jul-15 00:21N 38°59' E 117°43'0 0.0
2016-Jul-14 23:33N 38°59' E 117°43'0 0.0
2016-Jul-14 22:27N 38°59' E 117°43'0 0.0
2016-Jul-14 21:33N 38°59' E 117°43'0 0.0
2016-Jul-14 20:21N 38°59' E 117°43'0 0.0
2016-Jul-14 19:33N 38°59' E 117°43'0 0.0
2016-Jul-14 18:21N 38°59' E 117°43'0 0.0
2016-Jul-14 16:15N 38°59' E 117°43'0 0.0
2016-Jul-14 15:33N 38°59' E 117°43'0 0.0
2016-Jul-14 14:33N 38°59' E 117°43'0 0.0
2016-Jul-14 13:27N 38°59' E 117°43'0 0.0
2016-Jul-14 12:21N 38°59' E 117°43'0 0.0
2016-Jul-14 11:27N 38°59' E 117°43'0 0.0
2016-Jul-14 10:27N 38°59' E 117°43'0 0.0
2016-Jul-14 09:27N 38°59' E 117°43'0 0.0
2016-Jul-14 08:33N 38°59' E 117°43'0 0.0
2016-Jul-14 07:33N 38°59' E 117°43'0 0.0
2016-Jul-14 06:16N 38°59' E 117°43'0 0.0
2016-Jul-14 04:28N 38°59' E 117°43'0 0.0
2016-Jul-14 02:21N 38°59' E 117°43'0 0.3
2016-Jul-14 01:25N 38°59' E 117°44'0 0.0
2016-Jul-14 00:13N 38°59' E 117°44'0 0.0
2016-Jul-13 22:30N 38°59' E 117°44'0 0.0
2016-Jul-13 21:30N 38°59' E 117°44'0 0.0
2016-Jul-13 20:31N 38°59' E 117°44'0 0.0
2016-Jul-13 19:25N 38°59' E 117°44'0 0.0
2016-Jul-13 18:31N 38°59' E 117°44'0 0.0
2016-Jul-13 17:25N 38°59' E 117°44'0 0.1
2016-Jul-13 16:30N 38°59' E 117°44'0 0.0
2016-Jul-13 15:31N 38°59' E 117°44'2 1.8
2016-Jul-13 14:32N 38°58' E 117°46'8 7.3
2016-Jul-13 13:30N 38°56' E 117°55'10 8.7
2016-Jul-13 12:23N 38°47' E 117°51'  

Dump ship's entire track history